sensor_id;sensor_type;location;lat;lon;timestamp;P1;durP1;ratioP1;P2;durP2;ratioP2
16662;SDS011;8445;51.270;9.434;2023-06-04T00:01:21;3.72;;;2.45;;
16662;SDS011;8445;51.270;9.434;2023-06-04T00:03:47;4.50;;;1.70;;
16662;SDS011;8445;51.270;9.434;2023-06-04T00:06:12;2.28;;;1.65;;
16662;SDS011;8445;51.270;9.434;2023-06-04T00:08:37;2.15;;;1.55;;
16662;SDS011;8445;51.270;9.434;2023-06-04T00:11:03;6.65;;;1.73;;
16662;SDS011;8445;51.270;9.434;2023-06-04T00:13:28;3.17;;;2.05;;
16662;SDS011;8445;51.270;9.434;2023-06-04T00:15:54;2.75;;;1.92;;
16662;SDS011;8445;51.270;9.434;2023-06-04T00:18:19;1.95;;;1.63;;
16662;SDS011;8445;51.270;9.434;2023-06-04T00:20:45;3.97;;;1.80;;
16662;SDS011;8445;51.270;9.434;2023-06-04T00:23:10;3.70;;;1.58;;
16662;SDS011;8445;51.270;9.434;2023-06-04T00:25:36;3.25;;;1.85;;
16662;SDS011;8445;51.270;9.434;2023-06-04T00:28:01;2.92;;;2.17;;
16662;SDS011;8445;51.270;9.434;2023-06-04T00:30:27;1.58;;;1.48;;
16662;SDS011;8445;51.270;9.434;2023-06-04T00:32:52;4.72;;;1.90;;
16662;SDS011;8445;51.270;9.434;2023-06-04T00:35:18;6.07;;;1.70;;
16662;SDS011;8445;51.270;9.434;2023-06-04T00:37:43;3.20;;;1.88;;
16662;SDS011;8445;51.270;9.434;2023-06-04T00:40:09;1.80;;;1.67;;
16662;SDS011;8445;51.270;9.434;2023-06-04T00:42:34;2.92;;;1.73;;
16662;SDS011;8445;51.270;9.434;2023-06-04T00:45:00;2.30;;;1.33;;
16662;SDS011;8445;51.270;9.434;2023-06-04T00:47:25;3.10;;;2.08;;
16662;SDS011;8445;51.270;9.434;2023-06-04T00:49:53;3.50;;;2.22;;
16662;SDS011;8445;51.270;9.434;2023-06-04T00:52:21;4.32;;;2.53;;
16662;SDS011;8445;51.270;9.434;2023-06-04T00:54:46;3.15;;;2.53;;
16662;SDS011;8445;51.270;9.434;2023-06-04T00:57:12;4.82;;;2.80;;
16662;SDS011;8445;51.270;9.434;2023-06-04T00:59:38;6.18;;;3.08;;
16662;SDS011;8445;51.270;9.434;2023-06-04T01:02:09;5.80;;;3.00;;
16662;SDS011;8445;51.270;9.434;2023-06-04T01:04:43;4.50;;;3.28;;
16662;SDS011;8445;51.270;9.434;2023-06-04T01:07:14;4.78;;;3.13;;
16662;SDS011;8445;51.270;9.434;2023-06-04T01:09:41;4.18;;;3.33;;
16662;SDS011;8445;51.270;9.434;2023-06-04T01:12:09;5.28;;;3.33;;
16662;SDS011;8445;51.270;9.434;2023-06-04T01:14:35;5.90;;;3.17;;
16662;SDS011;8445;51.270;9.434;2023-06-04T01:17:02;4.28;;;2.90;;
16662;SDS011;8445;51.270;9.434;2023-06-04T01:25:31;3.88;;;2.65;;
16662;SDS011;8445;51.270;9.434;2023-06-04T01:27:57;3.88;;;2.95;;
16662;SDS011;8445;51.270;9.434;2023-06-04T01:30:24;5.07;;;3.42;;
16662;SDS011;8445;51.270;9.434;2023-06-04T01:32:55;7.25;;;3.60;;
16662;SDS011;8445;51.270;9.434;2023-06-04T01:35:21;4.00;;;3.28;;
16662;SDS011;8445;51.270;9.434;2023-06-04T01:37:47;5.88;;;3.08;;
16662;SDS011;8445;51.270;9.434;2023-06-04T01:40:14;5.20;;;3.77;;
16662;SDS011;8445;51.270;9.434;2023-06-04T01:42:40;9.37;;;5.10;;
16662;SDS011;8445;51.270;9.434;2023-06-04T01:45:06;6.72;;;4.68;;
16662;SDS011;8445;51.270;9.434;2023-06-04T01:47:32;8.52;;;5.50;;
16662;SDS011;8445;51.270;9.434;2023-06-04T01:49:59;7.40;;;4.90;;
16662;SDS011;8445;51.270;9.434;2023-06-04T01:52:24;8.00;;;4.45;;
16662;SDS011;8445;51.270;9.434;2023-06-04T01:54:50;9.75;;;4.50;;
16662;SDS011;8445;51.270;9.434;2023-06-04T01:57:26;7.00;;;4.38;;
16662;SDS011;8445;51.270;9.434;2023-06-04T01:59:52;4.00;;;3.58;;
16662;SDS011;8445;51.270;9.434;2023-06-04T02:02:18;6.95;;;4.38;;
16662;SDS011;8445;51.270;9.434;2023-06-04T02:04:44;9.40;;;3.83;;
16662;SDS011;8445;51.270;9.434;2023-06-04T02:07:11;6.10;;;3.90;;
16662;SDS011;8445;51.270;9.434;2023-06-04T02:09:39;9.00;;;4.47;;
16662;SDS011;8445;51.270;9.434;2023-06-04T02:12:05;7.35;;;4.47;;
16662;SDS011;8445;51.270;9.434;2023-06-04T02:14:31;7.93;;;4.72;;
16662;SDS011;8445;51.270;9.434;2023-06-04T02:16:56;5.82;;;3.88;;
16662;SDS011;8445;51.270;9.434;2023-06-04T02:19:25;9.03;;;4.63;;
16662;SDS011;8445;51.270;9.434;2023-06-04T02:21:52;10.20;;;4.60;;
16662;SDS011;8445;51.270;9.434;2023-06-04T02:24:18;6.57;;;3.70;;
16662;SDS011;8445;51.270;9.434;2023-06-04T02:26:44;8.32;;;4.97;;
16662;SDS011;8445;51.270;9.434;2023-06-04T02:29:10;8.40;;;4.93;;
16662;SDS011;8445;51.270;9.434;2023-06-04T02:31:35;7.75;;;4.60;;
16662;SDS011;8445;51.270;9.434;2023-06-04T02:34:01;14.67;;;12.07;;
16662;SDS011;8445;51.270;9.434;2023-06-04T02:36:26;11.27;;;6.93;;
16662;SDS011;8445;51.270;9.434;2023-06-04T02:38:52;14.90;;;5.95;;
16662;SDS011;8445;51.270;9.434;2023-06-04T02:41:17;7.77;;;6.20;;
16662;SDS011;8445;51.270;9.434;2023-06-04T02:43:43;8.30;;;5.10;;
16662;SDS011;8445;51.270;9.434;2023-06-04T02:46:08;6.68;;;4.93;;
16662;SDS011;8445;51.270;9.434;2023-06-04T02:48:34;10.90;;;5.50;;
16662;SDS011;8445;51.270;9.434;2023-06-04T02:50:59;7.93;;;5.45;;
16662;SDS011;8445;51.270;9.434;2023-06-04T02:53:25;6.83;;;5.33;;
16662;SDS011;8445;51.270;9.434;2023-06-04T02:55:51;9.13;;;6.13;;
16662;SDS011;8445;51.270;9.434;2023-06-04T02:58:17;9.77;;;6.90;;
16662;SDS011;8445;51.270;9.434;2023-06-04T03:00:44;16.23;;;6.88;;
16662;SDS011;8445;51.270;9.434;2023-06-04T03:03:10;10.00;;;6.93;;
16662;SDS011;8445;51.270;9.434;2023-06-04T03:05:35;13.53;;;5.37;;
16662;SDS011;8445;51.270;9.434;2023-06-04T03:08:02;6.53;;;4.67;;
16662;SDS011;8445;51.270;9.434;2023-06-04T03:10:28;5.17;;;4.23;;
16662;SDS011;8445;51.270;9.434;2023-06-04T03:12:55;6.55;;;4.00;;
16662;SDS011;8445;51.270;9.434;2023-06-04T03:15:20;4.95;;;4.25;;
16662;SDS011;8445;51.270;9.434;2023-06-04T03:17:46;7.17;;;4.87;;
16662;SDS011;8445;51.270;9.434;2023-06-04T03:20:12;6.00;;;4.40;;
16662;SDS011;8445;51.270;9.434;2023-06-04T03:22:38;8.07;;;4.10;;
16662;SDS011;8445;51.270;9.434;2023-06-04T03:25:03;8.00;;;3.80;;
16662;SDS011;8445;51.270;9.434;2023-06-04T03:27:31;6.37;;;3.90;;
16662;SDS011;8445;51.270;9.434;2023-06-04T03:29:57;5.50;;;4.40;;
16662;SDS011;8445;51.270;9.434;2023-06-04T03:32:23;4.07;;;3.43;;
16662;SDS011;8445;51.270;9.434;2023-06-04T03:34:48;5.23;;;3.70;;
16662;SDS011;8445;51.270;9.434;2023-06-04T03:37:16;5.65;;;3.30;;
16662;SDS011;8445;51.270;9.434;2023-06-04T03:39:43;7.93;;;3.90;;
16662;SDS011;8445;51.270;9.434;2023-06-04T03:42:11;4.87;;;4.03;;
16662;SDS011;8445;51.270;9.434;2023-06-04T03:44:37;5.67;;;3.40;;
16662;SDS011;8445;51.270;9.434;2023-06-04T03:47:03;4.50;;;3.40;;
16662;SDS011;8445;51.270;9.434;2023-06-04T03:49:29;6.03;;;3.70;;
16662;SDS011;8445;51.270;9.434;2023-06-04T03:51:55;5.20;;;3.17;;
16662;SDS011;8445;51.270;9.434;2023-06-04T03:54:21;4.70;;;3.22;;
16662;SDS011;8445;51.270;9.434;2023-06-04T03:56:48;5.87;;;3.50;;
16662;SDS011;8445;51.270;9.434;2023-06-04T03:59:13;6.15;;;3.45;;
16662;SDS011;8445;51.270;9.434;2023-06-04T04:01:39;5.30;;;3.30;;
16662;SDS011;8445;51.270;9.434;2023-06-04T04:04:05;7.30;;;4.00;;
16662;SDS011;8445;51.270;9.434;2023-06-04T04:06:31;5.93;;;3.40;;
16662;SDS011;8445;51.270;9.434;2023-06-04T04:08:56;4.50;;;3.03;;
16662;SDS011;8445;51.270;9.434;2023-06-04T04:11:23;12.87;;;3.17;;
16662;SDS011;8445;51.270;9.434;2023-06-04T04:13:49;5.05;;;3.70;;
16662;SDS011;8445;51.270;9.434;2023-06-04T04:16:16;6.47;;;3.42;;
16662;SDS011;8445;51.270;9.434;2023-06-04T04:18:41;5.37;;;3.73;;
16662;SDS011;8445;51.270;9.434;2023-06-04T04:21:09;7.40;;;3.33;;
16662;SDS011;8445;51.270;9.434;2023-06-04T04:23:37;3.78;;;2.92;;
16662;SDS011;8445;51.270;9.434;2023-06-04T04:26:03;3.40;;;2.90;;
16662;SDS011;8445;51.270;9.434;2023-06-04T04:28:29;3.33;;;2.72;;
16662;SDS011;8445;51.270;9.434;2023-06-04T04:30:56;3.55;;;2.80;;
16662;SDS011;8445;51.270;9.434;2023-06-04T04:33:22;2.97;;;2.65;;
16662;SDS011;8445;51.270;9.434;2023-06-04T04:35:51;6.68;;;3.28;;
16662;SDS011;8445;51.270;9.434;2023-06-04T04:38:21;3.45;;;2.83;;
16662;SDS011;8445;51.270;9.434;2023-06-04T04:40:55;3.53;;;2.70;;
16662;SDS011;8445;51.270;9.434;2023-06-04T04:43:28;5.40;;;2.92;;
16662;SDS011;8445;51.270;9.434;2023-06-04T04:46:02;3.53;;;2.70;;
16662;SDS011;8445;51.270;9.434;2023-06-04T04:48:27;3.30;;;2.78;;
16662;SDS011;8445;51.270;9.434;2023-06-04T04:50:53;3.75;;;3.25;;
16662;SDS011;8445;51.270;9.434;2023-06-04T04:53:19;4.90;;;2.92;;
16662;SDS011;8445;51.270;9.434;2023-06-04T04:55:44;4.18;;;3.50;;
16662;SDS011;8445;51.270;9.434;2023-06-04T04:58:10;7.20;;;3.50;;
16662;SDS011;8445;51.270;9.434;2023-06-04T05:00:36;4.85;;;3.17;;
16662;SDS011;8445;51.270;9.434;2023-06-04T05:03:02;4.82;;;3.25;;
16662;SDS011;8445;51.270;9.434;2023-06-04T05:05:27;5.90;;;3.00;;
16662;SDS011;8445;51.270;9.434;2023-06-04T05:07:53;3.85;;;2.65;;
16662;SDS011;8445;51.270;9.434;2023-06-04T05:10:22;4.15;;;2.85;;
16662;SDS011;8445;51.270;9.434;2023-06-04T05:12:54;3.20;;;2.90;;
16662;SDS011;8445;51.270;9.434;2023-06-04T05:15:25;3.75;;;2.78;;
16662;SDS011;8445;51.270;9.434;2023-06-04T05:17:52;3.25;;;2.58;;
16662;SDS011;8445;51.270;9.434;2023-06-04T05:20:20;5.13;;;3.13;;
16662;SDS011;8445;51.270;9.434;2023-06-04T05:22:47;3.08;;;2.47;;
16662;SDS011;8445;51.270;9.434;2023-06-04T05:25:13;5.30;;;2.67;;
16662;SDS011;8445;51.270;9.434;2023-06-04T05:27:40;3.00;;;2.70;;
16662;SDS011;8445;51.270;9.434;2023-06-04T05:30:08;3.28;;;2.85;;
16662;SDS011;8445;51.270;9.434;2023-06-04T05:32:34;4.28;;;2.60;;
16662;SDS011;8445;51.270;9.434;2023-06-04T05:35:02;3.00;;;2.70;;
16662;SDS011;8445;51.270;9.434;2023-06-04T05:37:32;2.80;;;2.50;;
16662;SDS011;8445;51.270;9.434;2023-06-04T05:39:59;6.40;;;3.00;;
16662;SDS011;8445;51.270;9.434;2023-06-04T05:42:25;3.40;;;2.53;;
16662;SDS011;8445;51.270;9.434;2023-06-04T05:44:51;4.88;;;2.85;;
16662;SDS011;8445;51.270;9.434;2023-06-04T05:47:18;3.85;;;2.60;;
16662;SDS011;8445;51.270;9.434;2023-06-04T05:49:46;4.18;;;2.72;;
16662;SDS011;8445;51.270;9.434;2023-06-04T05:52:11;4.72;;;2.58;;
16662;SDS011;8445;51.270;9.434;2023-06-04T05:54:37;3.08;;;2.60;;
16662;SDS011;8445;51.270;9.434;2023-06-04T05:57:06;5.60;;;2.65;;
16662;SDS011;8445;51.270;9.434;2023-06-04T05:59:32;7.07;;;2.85;;
16662;SDS011;8445;51.270;9.434;2023-06-04T06:01:58;5.68;;;2.30;;
16662;SDS011;8445;51.270;9.434;2023-06-04T06:04:24;4.70;;;2.30;;
16662;SDS011;8445;51.270;9.434;2023-06-04T06:06:50;3.45;;;2.50;;
16662;SDS011;8445;51.270;9.434;2023-06-04T06:09:19;2.63;;;2.20;;
16662;SDS011;8445;51.270;9.434;2023-06-04T06:11:45;4.05;;;2.22;;
16662;SDS011;8445;51.270;9.434;2023-06-04T06:14:10;4.13;;;2.33;;
16662;SDS011;8445;51.270;9.434;2023-06-04T06:16:36;2.80;;;2.30;;
16662;SDS011;8445;51.270;9.434;2023-06-04T06:19:02;3.22;;;2.30;;
16662;SDS011;8445;51.270;9.434;2023-06-04T06:21:27;3.53;;;2.22;;
16662;SDS011;8445;51.270;9.434;2023-06-04T06:23:53;4.40;;;2.20;;
16662;SDS011;8445;51.270;9.434;2023-06-04T06:26:19;3.28;;;2.15;;
16662;SDS011;8445;51.270;9.434;2023-06-04T06:28:48;5.05;;;2.40;;
16662;SDS011;8445;51.270;9.434;2023-06-04T06:31:14;2.55;;;2.10;;
16662;SDS011;8445;51.270;9.434;2023-06-04T06:33:40;1.98;;;1.80;;
16662;SDS011;8445;51.270;9.434;2023-06-04T06:36:15;7.38;;;2.13;;
16662;SDS011;8445;51.270;9.434;2023-06-04T06:38:43;3.95;;;1.90;;
16662;SDS011;8445;51.270;9.434;2023-06-04T06:41:12;4.20;;;2.28;;
16662;SDS011;8445;51.270;9.434;2023-06-04T06:43:37;4.30;;;1.80;;
16662;SDS011;8445;51.270;9.434;2023-06-04T06:46:03;5.82;;;1.75;;
16662;SDS011;8445;51.270;9.434;2023-06-04T06:48:31;3.83;;;2.08;;
16662;SDS011;8445;51.270;9.434;2023-06-04T06:50:56;1.95;;;1.75;;
16662;SDS011;8445;51.270;9.434;2023-06-04T06:53:22;6.20;;;2.13;;
16662;SDS011;8445;51.270;9.434;2023-06-04T06:55:47;5.53;;;2.15;;
16662;SDS011;8445;51.270;9.434;2023-06-04T06:58:13;3.53;;;2.25;;
16662;SDS011;8445;51.270;9.434;2023-06-04T07:00:38;2.13;;;1.95;;
16662;SDS011;8445;51.270;9.434;2023-06-04T07:03:03;2.17;;;1.80;;
16662;SDS011;8445;51.270;9.434;2023-06-04T07:05:29;3.40;;;1.65;;
16662;SDS011;8445;51.270;9.434;2023-06-04T07:07:55;4.43;;;2.13;;
16662;SDS011;8445;51.270;9.434;2023-06-04T07:10:22;6.18;;;2.15;;
16662;SDS011;8445;51.270;9.434;2023-06-04T07:12:48;7.15;;;2.00;;
16662;SDS011;8445;51.270;9.434;2023-06-04T07:15:13;3.92;;;2.00;;
16662;SDS011;8445;51.270;9.434;2023-06-04T07:17:38;2.08;;;1.77;;
16662;SDS011;8445;51.270;9.434;2023-06-04T07:20:04;5.65;;;2.00;;
16662;SDS011;8445;51.270;9.434;2023-06-04T07:22:32;4.25;;;2.10;;
16662;SDS011;8445;51.270;9.434;2023-06-04T07:24:57;1.95;;;1.85;;
16662;SDS011;8445;51.270;9.434;2023-06-04T07:27:23;3.53;;;1.90;;
16662;SDS011;8445;51.270;9.434;2023-06-04T07:29:48;3.00;;;1.85;;
16662;SDS011;8445;51.270;9.434;2023-06-04T07:32:14;2.85;;;1.80;;
16662;SDS011;8445;51.270;9.434;2023-06-04T07:34:39;5.25;;;2.10;;
16662;SDS011;8445;51.270;9.434;2023-06-04T07:37:05;3.08;;;1.83;;
16662;SDS011;8445;51.270;9.434;2023-06-04T07:39:30;2.08;;;1.70;;
16662;SDS011;8445;51.270;9.434;2023-06-04T07:41:56;3.17;;;1.90;;
16662;SDS011;8445;51.270;9.434;2023-06-04T07:44:22;4.63;;;2.17;;
16662;SDS011;8445;51.270;9.434;2023-06-04T07:46:47;2.63;;;2.20;;
16662;SDS011;8445;51.270;9.434;2023-06-04T07:49:13;3.85;;;1.85;;
16662;SDS011;8445;51.270;9.434;2023-06-04T07:51:39;8.25;;;2.90;;
16662;SDS011;8445;51.270;9.434;2023-06-04T07:54:04;6.07;;;1.98;;
16662;SDS011;8445;51.270;9.434;2023-06-04T07:56:30;4.72;;;1.80;;
16662;SDS011;8445;51.270;9.434;2023-06-04T07:58:56;2.05;;;1.85;;
16662;SDS011;8445;51.270;9.434;2023-06-04T08:01:21;4.03;;;1.70;;
16662;SDS011;8445;51.270;9.434;2023-06-04T08:03:49;1.90;;;1.70;;
16662;SDS011;8445;51.270;9.434;2023-06-04T08:06:15;2.05;;;1.75;;
16662;SDS011;8445;51.270;9.434;2023-06-04T08:08:44;5.05;;;2.28;;
16662;SDS011;8445;51.270;9.434;2023-06-04T08:11:15;3.65;;;2.38;;
16662;SDS011;8445;51.270;9.434;2023-06-04T08:13:41;2.22;;;2.00;;
16662;SDS011;8445;51.270;9.434;2023-06-04T08:16:07;1.70;;;1.60;;
16662;SDS011;8445;51.270;9.434;2023-06-04T08:18:37;5.05;;;1.95;;
16662;SDS011;8445;51.270;9.434;2023-06-04T08:21:03;3.78;;;2.15;;
16662;SDS011;8445;51.270;9.434;2023-06-04T08:23:31;3.38;;;1.90;;
16662;SDS011;8445;51.270;9.434;2023-06-04T08:25:57;2.95;;;1.80;;
16662;SDS011;8445;51.270;9.434;2023-06-04T08:28:23;3.75;;;1.70;;
16662;SDS011;8445;51.270;9.434;2023-06-04T08:30:49;2.75;;;1.83;;
16662;SDS011;8445;51.270;9.434;2023-06-04T08:33:17;1.58;;;1.40;;
16662;SDS011;8445;51.270;9.434;2023-06-04T08:35:42;2.35;;;1.88;;
16662;SDS011;8445;51.270;9.434;2023-06-04T08:38:08;7.45;;;1.70;;
16662;SDS011;8445;51.270;9.434;2023-06-04T08:40:33;3.90;;;1.65;;
16662;SDS011;8445;51.270;9.434;2023-06-04T08:43:00;1.63;;;1.30;;
16662;SDS011;8445;51.270;9.434;2023-06-04T08:45:26;3.55;;;1.50;;
16662;SDS011;8445;51.270;9.434;2023-06-04T08:47:52;2.00;;;1.58;;
16662;SDS011;8445;51.270;9.434;2023-06-04T08:50:22;2.45;;;1.58;;
16662;SDS011;8445;51.270;9.434;2023-06-04T08:52:52;1.65;;;1.50;;
16662;SDS011;8445;51.270;9.434;2023-06-04T08:55:19;3.25;;;1.40;;
16662;SDS011;8445;51.270;9.434;2023-06-04T08:57:53;2.78;;;1.88;;
16662;SDS011;8445;51.270;9.434;2023-06-04T09:00:19;2.40;;;1.80;;
16662;SDS011;8445;51.270;9.434;2023-06-04T09:02:45;2.17;;;1.80;;
16662;SDS011;8445;51.270;9.434;2023-06-04T09:05:18;3.95;;;1.48;;
16662;SDS011;8445;51.270;9.434;2023-06-04T09:07:46;2.30;;;1.92;;
16662;SDS011;8445;51.270;9.434;2023-06-04T09:10:12;3.38;;;1.70;;
16662;SDS011;8445;51.270;9.434;2023-06-04T09:12:43;3.08;;;1.70;;
16662;SDS011;8445;51.270;9.434;2023-06-04T09:15:12;2.17;;;1.73;;
16662;SDS011;8445;51.270;9.434;2023-06-04T09:17:37;2.63;;;1.98;;
16662;SDS011;8445;51.270;9.434;2023-06-04T09:20:03;3.92;;;1.88;;
16662;SDS011;8445;51.270;9.434;2023-06-04T09:22:34;2.75;;;1.95;;
16662;SDS011;8445;51.270;9.434;2023-06-04T09:25:01;8.07;;;2.10;;
16662;SDS011;8445;51.270;9.434;2023-06-04T09:27:36;3.45;;;2.70;;
16662;SDS011;8445;51.270;9.434;2023-06-04T09:30:03;2.88;;;2.20;;
16662;SDS011;8445;51.270;9.434;2023-06-04T09:32:29;3.50;;;2.58;;
16662;SDS011;8445;51.270;9.434;2023-06-04T09:34:56;2.55;;;2.20;;
16662;SDS011;8445;51.270;9.434;2023-06-04T09:37:34;2.85;;;1.90;;
16662;SDS011;8445;51.270;9.434;2023-06-04T09:40:00;7.18;;;2.40;;
16662;SDS011;8445;51.270;9.434;2023-06-04T09:42:25;4.32;;;2.42;;
16662;SDS011;8445;51.270;9.434;2023-06-04T09:44:51;3.83;;;2.08;;
16662;SDS011;8445;51.270;9.434;2023-06-04T09:47:17;3.28;;;2.25;;
16662;SDS011;8445;51.270;9.434;2023-06-04T09:49:43;3.38;;;2.00;;
16662;SDS011;8445;51.270;9.434;2023-06-04T09:52:10;5.80;;;2.33;;
16662;SDS011;8445;51.270;9.434;2023-06-04T09:54:36;2.88;;;1.95;;
16662;SDS011;8445;51.270;9.434;2023-06-04T09:57:04;4.50;;;2.40;;
16662;SDS011;8445;51.270;9.434;2023-06-04T09:59:38;3.97;;;1.88;;
16662;SDS011;8445;51.270;9.434;2023-06-04T10:02:05;5.45;;;1.98;;
16662;SDS011;8445;51.270;9.434;2023-06-04T10:04:34;3.17;;;2.03;;
16662;SDS011;8445;51.270;9.434;2023-06-04T10:07:03;5.38;;;2.05;;
16662;SDS011;8445;51.270;9.434;2023-06-04T10:09:31;2.03;;;1.80;;
16662;SDS011;8445;51.270;9.434;2023-06-04T10:11:58;2.28;;;1.85;;
16662;SDS011;8445;51.270;9.434;2023-06-04T10:14:39;3.15;;;2.30;;
16662;SDS011;8445;51.270;9.434;2023-06-04T10:17:07;4.50;;;2.10;;
16662;SDS011;8445;51.270;9.434;2023-06-04T10:19:34;3.83;;;1.95;;
16662;SDS011;8445;51.270;9.434;2023-06-04T10:22:03;3.22;;;2.13;;
16662;SDS011;8445;51.270;9.434;2023-06-04T10:24:30;3.25;;;1.92;;
16662;SDS011;8445;51.270;9.434;2023-06-04T10:26:57;2.53;;;1.55;;
16662;SDS011;8445;51.270;9.434;2023-06-04T10:29:23;2.40;;;2.05;;
16662;SDS011;8445;51.270;9.434;2023-06-04T10:31:54;3.22;;;1.90;;
16662;SDS011;8445;51.270;9.434;2023-06-04T10:34:20;4.30;;;2.60;;
16662;SDS011;8445;51.270;9.434;2023-06-04T10:36:46;4.22;;;2.33;;
16662;SDS011;8445;51.270;9.434;2023-06-04T10:39:11;5.95;;;1.90;;
16662;SDS011;8445;51.270;9.434;2023-06-04T10:41:37;3.00;;;2.17;;
16662;SDS011;8445;51.270;9.434;2023-06-04T10:44:03;4.30;;;2.00;;
16662;SDS011;8445;51.270;9.434;2023-06-04T10:46:38;2.78;;;1.73;;
16662;SDS011;8445;51.270;9.434;2023-06-04T10:49:08;2.10;;;1.90;;
16662;SDS011;8445;51.270;9.434;2023-06-04T10:51:36;4.22;;;1.77;;
16662;SDS011;8445;51.270;9.434;2023-06-04T10:54:04;4.00;;;2.20;;
16662;SDS011;8445;51.270;9.434;2023-06-04T10:56:31;2.42;;;2.00;;
16662;SDS011;8445;51.270;9.434;2023-06-04T10:58:58;5.30;;;1.80;;
16662;SDS011;8445;51.270;9.434;2023-06-04T11:01:27;3.88;;;1.80;;
16662;SDS011;8445;51.270;9.434;2023-06-04T11:03:57;2.72;;;1.90;;
16662;SDS011;8445;51.270;9.434;2023-06-04T11:06:23;2.60;;;1.90;;
16662;SDS011;8445;51.270;9.434;2023-06-04T11:09:01;1.55;;;1.40;;
16662;SDS011;8445;51.270;9.434;2023-06-04T11:11:30;2.03;;;1.83;;
16662;SDS011;8445;51.270;9.434;2023-06-04T11:13:56;3.35;;;1.80;;
16662;SDS011;8445;51.270;9.434;2023-06-04T11:16:32;2.13;;;1.90;;
16662;SDS011;8445;51.270;9.434;2023-06-04T11:18:58;4.72;;;2.20;;
16662;SDS011;8445;51.270;9.434;2023-06-04T11:21:27;2.80;;;1.75;;
16662;SDS011;8445;51.270;9.434;2023-06-04T11:23:59;1.63;;;1.50;;
16662;SDS011;8445;51.270;9.434;2023-06-04T11:26:34;1.92;;;1.63;;
16662;SDS011;8445;51.270;9.434;2023-06-04T11:29:01;4.20;;;1.70;;
16662;SDS011;8445;51.270;9.434;2023-06-04T11:31:39;2.00;;;1.90;;
16662;SDS011;8445;51.270;9.434;2023-06-04T11:34:07;4.53;;;2.03;;
16662;SDS011;8445;51.270;9.434;2023-06-04T11:36:32;4.35;;;1.80;;
16662;SDS011;8445;51.270;9.434;2023-06-04T11:38:59;6.97;;;3.25;;
16662;SDS011;8445;51.270;9.434;2023-06-04T11:41:29;4.30;;;3.10;;
16662;SDS011;8445;51.270;9.434;2023-06-04T11:43:56;8.57;;;2.50;;
16662;SDS011;8445;51.270;9.434;2023-06-04T11:46:22;4.78;;;2.85;;
16662;SDS011;8445;51.270;9.434;2023-06-04T11:48:51;3.53;;;2.38;;
16662;SDS011;8445;51.270;9.434;2023-06-04T11:51:19;2.60;;;1.98;;
16662;SDS011;8445;51.270;9.434;2023-06-04T11:53:46;1.92;;;1.63;;
16662;SDS011;8445;51.270;9.434;2023-06-04T11:56:12;5.07;;;2.83;;
16662;SDS011;8445;51.270;9.434;2023-06-04T11:58:37;4.55;;;2.08;;
16662;SDS011;8445;51.270;9.434;2023-06-04T12:01:05;3.08;;;2.67;;
16662;SDS011;8445;51.270;9.434;2023-06-04T12:03:39;2.00;;;1.80;;
16662;SDS011;8445;51.270;9.434;2023-06-04T12:06:24;3.42;;;2.22;;
16662;SDS011;8445;51.270;9.434;2023-06-04T12:08:50;6.22;;;2.10;;
16662;SDS011;8445;51.270;9.434;2023-06-04T12:11:23;2.30;;;1.80;;
16662;SDS011;8445;51.270;9.434;2023-06-04T12:13:59;5.07;;;2.25;;
16662;SDS011;8445;51.270;9.434;2023-06-04T12:16:28;2.17;;;1.90;;
16662;SDS011;8445;51.270;9.434;2023-06-04T12:19:04;2.17;;;1.98;;
16662;SDS011;8445;51.270;9.434;2023-06-04T12:21:31;6.32;;;2.35;;
16662;SDS011;8445;51.270;9.434;2023-06-04T12:24:09;5.30;;;1.90;;
16662;SDS011;8445;51.270;9.434;2023-06-04T12:26:36;12.68;;;4.63;;
16662;SDS011;8445;51.270;9.434;2023-06-04T12:31:43;2.42;;;1.77;;
16662;SDS011;8445;51.270;9.434;2023-06-04T12:34:13;2.17;;;1.90;;
16662;SDS011;8445;51.270;9.434;2023-06-04T12:36:39;6.70;;;3.42;;
16662;SDS011;8445;51.270;9.434;2023-06-04T12:39:06;3.67;;;2.10;;
16662;SDS011;8445;51.270;9.434;2023-06-04T12:41:32;3.55;;;2.17;;
16662;SDS011;8445;51.270;9.434;2023-06-04T12:44:01;3.63;;;1.80;;
16662;SDS011;8445;51.270;9.434;2023-06-04T12:46:27;2.42;;;2.10;;
16662;SDS011;8445;51.270;9.434;2023-06-04T12:48:53;2.45;;;2.22;;
16662;SDS011;8445;51.270;9.434;2023-06-04T12:51:19;3.60;;;2.10;;
16662;SDS011;8445;51.270;9.434;2023-06-04T12:53:46;3.17;;;1.67;;
16662;SDS011;8445;51.270;9.434;2023-06-04T12:56:12;2.13;;;1.88;;
16662;SDS011;8445;51.270;9.434;2023-06-04T12:58:37;3.53;;;2.33;;
16662;SDS011;8445;51.270;9.434;2023-06-04T13:01:03;2.47;;;2.08;;
16662;SDS011;8445;51.270;9.434;2023-06-04T13:03:32;2.75;;;2.08;;
16662;SDS011;8445;51.270;9.434;2023-06-04T13:05:58;2.63;;;1.98;;
16662;SDS011;8445;51.270;9.434;2023-06-04T13:08:23;2.95;;;1.63;;
16662;SDS011;8445;51.270;9.434;2023-06-04T13:10:50;3.20;;;1.80;;
16662;SDS011;8445;51.270;9.434;2023-06-04T13:13:17;4.35;;;2.70;;
16662;SDS011;8445;51.270;9.434;2023-06-04T13:15:43;2.40;;;2.10;;
16662;SDS011;8445;51.270;9.434;2023-06-04T13:18:09;3.63;;;2.80;;
16662;SDS011;8445;51.270;9.434;2023-06-04T13:20:41;5.32;;;1.90;;
16662;SDS011;8445;51.270;9.434;2023-06-04T13:23:07;2.95;;;1.70;;
16662;SDS011;8445;51.270;9.434;2023-06-04T13:25:33;1.58;;;1.48;;
16662;SDS011;8445;51.270;9.434;2023-06-04T13:27:59;2.22;;;1.90;;
16662;SDS011;8445;51.270;9.434;2023-06-04T13:30:25;2.08;;;1.88;;
16662;SDS011;8445;51.270;9.434;2023-06-04T13:32:52;3.35;;;1.60;;
16662;SDS011;8445;51.270;9.434;2023-06-04T13:35:18;7.70;;;2.10;;
16662;SDS011;8445;51.270;9.434;2023-06-04T13:37:44;6.05;;;1.52;;
16662;SDS011;8445;51.270;9.434;2023-06-04T13:40:09;3.03;;;2.15;;
16662;SDS011;8445;51.270;9.434;2023-06-04T13:42:35;5.15;;;1.60;;
16662;SDS011;8445;51.270;9.434;2023-06-04T13:45:00;2.13;;;1.80;;
16662;SDS011;8445;51.270;9.434;2023-06-04T13:47:26;2.10;;;1.95;;
16662;SDS011;8445;51.270;9.434;2023-06-04T13:49:52;1.70;;;1.60;;
16662;SDS011;8445;51.270;9.434;2023-06-04T13:52:17;3.35;;;1.83;;
16662;SDS011;8445;51.270;9.434;2023-06-04T13:54:43;2.25;;;1.55;;
16662;SDS011;8445;51.270;9.434;2023-06-04T13:57:08;2.80;;;1.33;;
16662;SDS011;8445;51.270;9.434;2023-06-04T13:59:37;6.85;;;1.90;;
16662;SDS011;8445;51.270;9.434;2023-06-04T14:02:03;4.38;;;2.10;;
16662;SDS011;8445;51.270;9.434;2023-06-04T14:04:29;2.70;;;2.10;;
16662;SDS011;8445;51.270;9.434;2023-06-04T14:06:54;1.75;;;1.65;;
16662;SDS011;8445;51.270;9.434;2023-06-04T14:09:20;3.75;;;1.60;;
16662;SDS011;8445;51.270;9.434;2023-06-04T14:11:45;3.35;;;1.90;;
16662;SDS011;8445;51.270;9.434;2023-06-04T14:14:15;1.75;;;1.25;;
16662;SDS011;8445;51.270;9.434;2023-06-04T14:16:42;2.42;;;1.98;;
16662;SDS011;8445;51.270;9.434;2023-06-04T14:19:08;1.83;;;1.50;;
16662;SDS011;8445;51.270;9.434;2023-06-04T14:21:34;5.88;;;1.95;;
16662;SDS011;8445;51.270;9.434;2023-06-04T14:23:59;4.15;;;2.00;;
16662;SDS011;8445;51.270;9.434;2023-06-04T14:26:24;2.67;;;2.08;;
16662;SDS011;8445;51.270;9.434;2023-06-04T14:28:50;2.40;;;1.75;;
16662;SDS011;8445;51.270;9.434;2023-06-04T14:31:15;1.67;;;1.58;;
16662;SDS011;8445;51.270;9.434;2023-06-04T14:33:41;3.70;;;1.70;;
16662;SDS011;8445;51.270;9.434;2023-06-04T14:36:06;3.30;;;2.33;;
16662;SDS011;8445;51.270;9.434;2023-06-04T14:38:32;3.55;;;2.00;;
16662;SDS011;8445;51.270;9.434;2023-06-04T14:40:58;1.48;;;1.38;;
16662;SDS011;8445;51.270;9.434;2023-06-04T14:43:24;1.88;;;1.67;;
16662;SDS011;8445;51.270;9.434;2023-06-04T14:45:50;1.60;;;1.50;;
16662;SDS011;8445;51.270;9.434;2023-06-04T14:48:15;2.10;;;1.90;;
16662;SDS011;8445;51.270;9.434;2023-06-04T14:50:41;4.28;;;2.15;;
16662;SDS011;8445;51.270;9.434;2023-06-04T14:53:06;4.72;;;1.70;;
16662;SDS011;8445;51.270;9.434;2023-06-04T14:55:35;1.85;;;1.70;;
16662;SDS011;8445;51.270;9.434;2023-06-04T14:58:01;2.97;;;1.77;;
16662;SDS011;8445;51.270;9.434;2023-06-04T15:00:30;1.70;;;1.60;;
16662;SDS011;8445;51.270;9.434;2023-06-04T15:02:56;2.88;;;1.90;;
16662;SDS011;8445;51.270;9.434;2023-06-04T15:05:22;2.72;;;1.77;;
16662;SDS011;8445;51.270;9.434;2023-06-04T15:07:47;2.15;;;1.77;;